createdAt,value
2019-05-10T00:00:40.270Z,83.8483
2019-05-10T00:01:43.307Z,83.4363
2019-05-10T00:02:46.346Z,83.8315
2019-05-10T00:03:49.287Z,83.2181
2019-05-10T00:04:52.337Z,83.4287
2019-05-10T00:05:55.295Z,83.3692
2019-05-10T00:06:58.318Z,83.6759
2019-05-10T00:08:01.281Z,83.7674
2019-05-10T00:09:04.290Z,83.8407
2019-05-10T00:10:07.299Z,83.8941
2019-05-10T00:11:10.318Z,84.3076
2019-05-10T00:12:13.292Z,83.8315
2019-05-10T00:13:16.317Z,84.0635
2019-05-10T00:14:19.298Z,84.4770
2019-05-10T00:15:21.297Z,84.7791
2019-05-10T00:16:24.332Z,84.9287
2019-05-10T00:17:27.273Z,85.1438
2019-05-10T00:18:30.367Z,84.7288
2019-05-10T00:19:33.298Z,85.1270
2019-05-10T00:20:36.300Z,85.3773
2019-05-10T00:21:39.286Z,84.7547
2019-05-10T00:22:42.305Z,84.6998
2019-05-10T00:23:45.304Z,84.9393
2019-05-10T00:25:02.256Z,85.0797
2019-05-10T00:25:56.297Z,85.1682
2019-05-10T00:26:59.305Z,85.7862
2019-05-10T00:28:02.314Z,86.1204
2019-05-10T00:29:05.289Z,86.9810
2019-05-10T00:30:08.296Z,86.4775
2019-05-10T00:31:11.265Z,87.2724
2019-05-10T00:32:14.301Z,88.8304
2019-05-10T00:33:17.291Z,87.3381
2019-05-10T00:34:20.304Z,86.9703
2019-05-10T00:35:23.315Z,87.2648
2019-05-10T00:36:26.293Z,86.8025
2019-05-10T00:37:29.318Z,86.6514
2019-05-10T00:38:32.302Z,85.8305
2019-05-10T00:39:35.325Z,85.2720
2019-05-10T00:40:38.304Z,84.6510
2019-05-10T00:41:40.272Z,84.8096
2019-05-10T00:42:43.252Z,85.1301
2019-05-10T00:43:46.300Z,85.4566
2019-05-10T00:44:49.298Z,85.6992
2019-05-10T00:45:52.293Z,85.8717
2019-05-10T00:46:55.298Z,85.5283
2019-05-10T00:47:58.287Z,84.9653
2019-05-10T00:49:01.300Z,85.0126
2019-05-10T00:50:04.304Z,85.2949
2019-05-10T00:51:07.331Z,85.4887
2019-05-10T00:52:10.288Z,85.7816
2019-05-10T00:53:13.298Z,85.6031
2019-05-10T00:54:16.307Z,86.3478
2019-05-10T00:55:19.621Z,87.5196
2019-05-10T00:56:21.329Z,88.1392
2019-05-10T00:57:24.294Z,89.6178
2019-05-10T00:58:27.312Z,90.5821
2019-05-10T00:59:30.290Z,91.4977
2019-05-10T01:00:33.269Z,91.6167
2019-05-10T01:01:36.287Z,91.6533
2019-05-10T01:02:39.280Z,92.6009
2019-05-10T01:03:42.265Z,93.3928
2019-05-10T01:04:44.342Z,93.9757
2019-05-10T01:05:47.291Z,93.2830
2019-05-10T01:06:51.443Z,93.8750
2019-05-10T01:07:54.301Z,94.0719
2019-05-10T01:08:57.250Z,94.6883
2019-05-10T01:10:00.325Z,94.3130
2019-05-10T01:11:03.295Z,94.8669
2019-05-10T01:12:06.307Z,95.1202
2019-05-10T01:13:09.282Z,95.4528
2019-05-10T01:14:12.295Z,95.8480
2019-05-10T01:15:15.354Z,95.9655
2019-05-10T01:16:18.307Z,96.0540
2019-05-10T01:17:21.310Z,96.2692
2019-05-10T01:18:24.263Z,96.4736
2019-05-10T01:19:27.292Z,96.4706
2019-05-10T01:20:30.301Z,96.1852
2019-05-10T01:21:32.297Z,96.4691
2019-05-10T01:22:35.281Z,96.5606
2019-05-10T01:23:37.263Z,96.0677
2019-05-10T01:24:40.308Z,96.5377
2019-05-10T01:25:44.376Z,96.8231
2019-05-10T01:26:47.325Z,96.9772
2019-05-10T01:27:50.257Z,96.3592
2019-05-10T01:28:53.294Z,95.9716
2019-05-10T01:29:56.292Z,95.5001
2019-05-10T01:30:59.359Z,95.5138
2019-05-10T01:32:02.290Z,95.6374
2019-05-10T01:33:05.287Z,95.9213
2019-05-10T01:34:08.306Z,95.9030
2019-05-10T01:35:11.304Z,96.0769
2019-05-10T01:36:14.337Z,96.5148
2019-05-10T01:37:17.291Z,96.4233
2019-05-10T01:38:20.301Z,96.4004
2019-05-10T01:39:23.279Z,95.8297
2019-05-10T01:40:26.292Z,95.9060
2019-05-10T01:41:29.303Z,95.8709
2019-05-10T01:42:32.280Z,95.8968
2019-05-10T01:43:35.309Z,96.3729
2019-05-10T01:44:38.290Z,96.1044
2019-05-10T01:45:40.295Z,96.1578
2019-05-10T01:46:43.329Z,96.5331
2019-05-10T01:47:46.297Z,96.7163
2019-05-10T01:48:49.269Z,96.3195
2019-05-10T01:49:52.392Z,96.2905
2019-05-10T01:50:55.285Z,96.5835
2019-05-10T01:51:58.299Z,96.2539
2019-05-10T01:53:01.282Z,96.5850
2019-05-10T01:54:04.259Z,96.6903
2019-05-10T01:55:07.298Z,96.2234
2019-05-10T01:56:10.300Z,96.0677
2019-05-10T01:57:13.355Z,96.3363
2019-05-10T01:58:16.318Z,96.6384
2019-05-10T01:59:19.289Z,96.9772
2019-05-10T02:00:22.284Z,97.4075
2019-05-10T02:01:25.283Z,97.3770
2019-05-10T02:02:28.338Z,97.5906
2019-05-10T02:03:31.259Z,97.7279
2019-05-10T02:04:34.302Z,97.5555
2019-05-10T02:05:37.277Z,97.7050
2019-05-10T02:06:40.309Z,97.8531
2019-05-10T02:07:43.382Z,98.0636
2019-05-10T02:08:46.319Z,98.0087
2019-05-10T02:09:49.320Z,98.0499
2019-05-10T02:10:52.303Z,98.1369
2019-05-10T02:11:55.311Z,98.2269
2019-05-10T02:12:58.329Z,98.1689
2019-05-10T02:14:01.316Z,98.3063
2019-05-10T02:15:04.268Z,98.2864
2019-05-10T02:16:07.289Z,98.3459
2019-05-10T02:17:10.279Z,98.4344
2019-05-10T02:18:13.349Z,98.6175
2019-05-10T02:19:16.288Z,98.6267
2019-05-10T02:20:19.343Z,98.5534
2019-05-10T02:21:22.318Z,98.5718
2019-05-10T02:22:25.290Z,98.5763
2019-05-10T02:23:28.352Z,98.4695
2019-05-10T02:24:31.286Z,98.4054
2019-05-10T02:25:34.322Z,98.4878
2019-05-10T02:26:36.305Z,98.3841
2019-05-10T02:27:39.306Z,98.3475
2019-05-10T02:28:42.320Z,98.2284
2019-05-10T02:29:45.342Z,98.3017
2019-05-10T02:30:48.292Z,98.2818
2019-05-10T02:31:51.286Z,98.3154
2019-05-10T02:32:54.342Z,98.1094
2019-05-10T02:33:57.322Z,98.2422
2019-05-10T02:35:00.373Z,98.4100
2019-05-10T02:36:03.322Z,98.6496
2019-05-10T02:37:06.326Z,98.7320
2019-05-10T02:38:08.288Z,98.7579
2019-05-10T02:39:11.393Z,98.5657
2019-05-10T02:40:14.303Z,98.4848
2019-05-10T02:41:17.306Z,98.5519
2019-05-10T02:42:20.332Z,98.4329
2019-05-10T02:43:23.290Z,98.4298
2019-05-10T02:44:26.357Z,98.5382
2019-05-10T02:45:29.331Z,98.4787
2019-05-10T02:46:32.318Z,98.3795
2019-05-10T02:47:35.297Z,98.5199
2019-05-10T02:48:38.346Z,98.5931
2019-05-10T02:49:41.296Z,98.3917
2019-05-10T02:50:44.282Z,98.3017
2019-05-10T02:51:47.317Z,98.2086
2019-05-10T02:52:50.287Z,98.2010
2019-05-10T02:53:53.321Z,98.3017
2019-05-10T02:54:56.314Z,98.2361
2019-05-10T02:55:59.319Z,98.4100
2019-05-10T02:57:02.318Z,98.5580
2019-05-10T02:58:05.314Z,98.4298
2019-05-10T02:59:08.321Z,98.3413
2019-05-10T03:00:11.316Z,98.5428
2019-05-10T03:01:14.318Z,98.6343
2019-05-10T03:02:17.343Z,99.0204
2019-05-10T03:03:20.301Z,99.0570
2019-05-10T03:04:23.337Z,99.0204
2019-05-10T03:05:26.341Z,98.9822
2019-05-10T03:06:29.282Z,99.0784
2019-05-10T03:07:32.353Z,99.0753
2019-05-10T03:08:35.289Z,99.0661
2019-05-10T03:09:38.333Z,99.1348
2019-05-10T03:10:41.306Z,99.0921
2019-05-10T03:11:44.277Z,99.0646
2019-05-10T03:12:47.322Z,99.1531
2019-05-10T03:13:50.394Z,99.3362
2019-05-10T03:14:52.283Z,99.4537
2019-05-10T03:15:55.315Z,99.5331
2019-05-10T03:16:58.327Z,99.7070
2019-05-10T03:18:01.296Z,99.6506
2019-05-10T03:19:04.318Z,99.5880
2019-05-10T03:20:07.287Z,99.6094
2019-05-10T03:21:10.337Z,99.6521
2019-05-10T03:22:13.343Z,99.6506
2019-05-10T03:23:16.277Z,99.7238
2019-05-10T03:24:19.316Z,99.7559
2019-05-10T03:25:22.295Z,99.7116
2019-05-10T03:26:25.318Z,99.7208
2019-05-10T03:27:28.284Z,99.6109
2019-05-10T03:28:31.287Z,99.5041
2019-05-10T03:29:34.284Z,99.4629
2019-05-10T03:30:37.320Z,99.5087
2019-05-10T03:31:40.321Z,99.4766
2019-05-10T03:32:43.326Z,99.3530
2019-05-10T03:33:55.009Z,99.3942
2019-05-10T03:34:54.300Z,99.5148
2019-05-10T03:35:57.369Z,99.3027
2019-05-10T03:37:00.282Z,99.0478
2019-05-10T03:38:03.292Z,99.0372
2019-05-10T03:39:06.312Z,98.9227
2019-05-10T03:40:09.325Z,98.8815
2019-05-10T03:41:12.320Z,98.8602
2019-05-10T03:42:15.265Z,99.0845
2019-05-10T03:43:18.305Z,99.0753
2019-05-10T03:44:21.277Z,99.3027
2019-05-10T03:45:24.376Z,99.1562
2019-05-10T03:46:27.307Z,99.2126
2019-05-10T03:47:30.302Z,99.3713
2019-05-10T03:48:33.268Z,99.2294
2019-05-10T03:49:36.314Z,98.8693
2019-05-10T03:50:39.319Z,98.8769
2019-05-10T03:51:42.333Z,98.7717
2019-05-10T03:52:44.308Z,98.7350
2019-05-10T03:53:47.290Z,98.8220
2019-05-10T03:54:50.310Z,98.7686
2019-05-10T03:55:53.416Z,98.7823
2019-05-10T03:57:11.871Z,98.7854
2019-05-10T03:58:04.303Z,98.8281
2019-05-10T03:59:07.315Z,98.8968
2019-05-10T04:00:10.294Z,98.8418
2019-05-10T04:01:13.300Z,98.7961
2019-05-10T04:02:16.339Z,98.8785
2019-05-10T04:03:19.284Z,98.7549
2019-05-10T04:04:24.325Z,98.5153
2019-05-10T04:05:27.303Z,98.4741
2019-05-10T04:06:30.330Z,98.4985
2019-05-10T04:07:33.294Z,98.3978
2019-05-10T04:08:36.318Z,98.2055
2019-05-10T04:09:39.269Z,97.9477
2019-05-10T04:10:42.320Z,98.0270
2019-05-10T04:11:45.328Z,98.1872
2019-05-10T04:12:48.303Z,98.0911
2019-05-10T04:13:51.312Z,98.1262
2019-05-10T04:14:54.281Z,98.0713
2019-05-10T04:15:57.294Z,98.2086
2019-05-10T04:17:01.326Z,98.2238
2019-05-10T04:18:03.351Z,98.3734
2019-05-10T04:19:06.287Z,98.4375
2019-05-10T04:20:08.312Z,98.3185
2019-05-10T04:21:10.501Z,98.6816
2019-05-10T04:22:13.294Z,98.9609
2019-05-10T04:23:16.374Z,99.0005
2019-05-10T04:24:19.297Z,98.9105
2019-05-10T04:25:22.317Z,98.9197
2019-05-10T04:26:25.339Z,98.7625
2019-05-10T04:27:32.099Z,98.9731
2019-05-10T04:28:36.327Z,99.2172
2019-05-10T04:29:39.317Z,99.3408
2019-05-10T04:30:42.275Z,99.0051
2019-05-10T04:31:44.289Z,99.0570
2019-05-10T04:32:46.456Z,99.1241
2019-05-10T04:33:49.290Z,99.2447
2019-05-10T04:34:52.318Z,99.4675
2019-05-10T04:35:55.288Z,99.4308
2019-05-10T04:36:58.290Z,99.1562
2019-05-10T04:38:00.290Z,99.1897
2019-05-10T04:39:03.333Z,99.0967
2019-05-10T04:40:06.300Z,98.7961
2019-05-10T04:41:09.301Z,98.9639
2019-05-10T04:42:12.313Z,98.8327
2019-05-10T04:43:14.295Z,98.8632
2019-05-10T04:44:17.313Z,98.8998
2019-05-10T04:45:20.276Z,98.6297
2019-05-10T04:46:23.319Z,98.6999
2019-05-10T04:47:26.303Z,97.6333
2019-05-10T04:48:29.321Z,97.3434
2019-05-10T04:49:32.341Z,97.6730
2019-05-10T04:50:35.331Z,97.8149
2019-05-10T04:51:38.358Z,98.0865
2019-05-10T04:52:40.322Z,98.3459
2019-05-10T04:53:43.338Z,98.1781
2019-05-10T04:54:45.309Z,98.2971
2019-05-10T04:55:48.328Z,98.1735
2019-05-10T04:56:50.334Z,98.3108
2019-05-10T04:57:53.313Z,98.4833
2019-05-10T04:58:55.317Z,98.4527
2019-05-10T04:59:58.295Z,98.5855
2019-05-10T05:01:01.349Z,98.5718
2019-05-10T05:02:04.303Z,98.6587
2019-05-10T05:03:07.320Z,98.2589
2019-05-10T05:04:10.295Z,97.8531
2019-05-10T05:05:13.392Z,98.0758
2019-05-10T05:06:16.296Z,98.0087
2019-05-10T05:07:19.288Z,98.3963
2019-05-10T05:08:22.339Z,98.3139
2019-05-10T05:09:25.280Z,98.2177
2019-05-10T05:10:28.361Z,98.3871
2019-05-10T05:11:31.289Z,98.6114
2019-05-10T05:12:34.319Z,98.6358
2019-05-10T05:13:37.292Z,98.6633
2019-05-10T05:14:40.340Z,98.5306
2019-05-10T05:15:43.321Z,97.9950
2019-05-10T05:16:46.337Z,97.8744
2019-05-10T05:17:49.292Z,98.2467
2019-05-10T05:18:52.291Z,98.4665
2019-05-10T05:19:55.334Z,98.4985
2019-05-10T05:20:58.328Z,98.6023
2019-05-10T05:22:01.325Z,98.8190
2019-05-10T05:23:04.291Z,99.1058
2019-05-10T05:24:07.325Z,99.0021
2019-05-10T05:25:10.282Z,98.8586
2019-05-10T05:26:13.364Z,98.8586
2019-05-10T05:27:16.394Z,98.1643
2019-05-10T05:28:23.178Z,98.4482
2019-05-10T05:29:27.319Z,98.6755
2019-05-10T05:30:30.311Z,99.0188
2019-05-10T05:31:33.344Z,98.9059
2019-05-10T05:32:38.510Z,99.0646
2019-05-10T05:33:44.332Z,98.8418
2019-05-10T05:34:47.294Z,99.2081
2019-05-10T05:35:50.294Z,99.1928
2019-05-10T05:36:53.333Z,99.3347
2019-05-10T05:37:56.280Z,99.5056
2019-05-10T05:38:59.304Z,99.5224
2019-05-10T05:40:02.333Z,99.5453
2019-05-10T05:41:05.310Z,99.6551
2019-05-10T05:42:08.352Z,99.5697
2019-05-10T05:43:11.314Z,99.4095
2019-05-10T05:44:14.322Z,99.4446
2019-05-10T05:45:17.335Z,99.3637
2019-05-10T05:46:20.276Z,99.4400
2019-05-10T05:47:23.402Z,99.3042
2019-05-10T05:48:39.590Z,99.3362
2019-05-10T05:49:34.302Z,99.3713
2019-05-10T05:50:37.284Z,99.4354
2019-05-10T05:51:40.297Z,99.6277
2019-05-10T05:52:43.368Z,99.5727
2019-05-10T05:53:46.319Z,99.5697
2019-05-10T05:54:52.950Z,99.4583
2019-05-10T05:55:57.274Z,99.4919
2019-05-10T05:57:00.347Z,99.5224
2019-05-10T05:58:04.849Z,99.6429
2019-05-10T05:59:09.076Z,99.5697
2019-05-10T06:00:12.311Z,99.6658
2019-05-10T06:01:24.830Z,99.6567
2019-05-10T06:02:23.306Z,99.1073
2019-05-10T06:03:29.206Z,98.7717
2019-05-10T06:04:33.296Z,98.1964
2019-05-10T06:05:37.264Z,98.2010
2019-05-10T06:06:40.362Z,98.1552
2019-05-10T06:07:43.329Z,98.1033
2019-05-10T06:08:46.385Z,97.9751
2019-05-10T06:09:49.326Z,97.5647
2019-05-10T06:10:57.685Z,97.5463
2019-05-10T06:12:00.306Z,97.8027
2019-05-10T06:13:03.352Z,97.7569
2019-05-10T06:14:10.497Z,97.7783
2019-05-10T06:15:14.295Z,97.0703
2019-05-10T06:16:17.306Z,96.8231
2019-05-10T06:17:23.793Z,96.7712
2019-05-10T06:18:28.353Z,97.2992
2019-05-10T06:19:31.294Z,97.1145
2019-05-10T06:20:38.243Z,97.5784
2019-05-10T06:21:42.330Z,97.5814
2019-05-10T06:23:04.990Z,98.0591
2019-05-10T06:23:53.328Z,97.6272
2019-05-10T06:24:56.301Z,97.3724
2019-05-10T06:25:59.347Z,97.2717
2019-05-10T06:27:03.396Z,96.4019
2019-05-10T06:28:25.352Z,96.7437
2019-05-10T06:29:19.672Z,95.2834
2019-05-10T06:30:23.612Z,95.8663
2019-05-10T06:31:27.279Z,96.3546
2019-05-10T06:32:30.299Z,97.0611
2019-05-10T06:33:32.316Z,97.2061
2019-05-10T06:34:38.830Z,97.7279
2019-05-10T06:35:43.330Z,97.8973
2019-05-10T06:36:46.349Z,97.8882
2019-05-10T06:37:49.317Z,97.7966
2019-05-10T06:38:52.366Z,97.6425
2019-05-10T06:39:55.281Z,97.6730
2019-05-10T06:40:58.303Z,97.8576
2019-05-10T06:42:01.326Z,98.1414
2019-05-10T06:43:06.927Z,98.1735
2019-05-10T06:44:12.354Z,98.1949
2019-05-10T06:45:16.340Z,98.2635
2019-05-10T06:46:23.645Z,98.4421
2019-05-10T06:47:27.330Z,98.3459
2019-05-10T06:48:33.642Z,98.2269
2019-05-10T06:49:41.014Z,97.7691
2019-05-10T06:50:45.347Z,97.9522
2019-05-10T06:51:49.197Z,97.5677
2019-05-10T06:52:54.303Z,97.6013
2019-05-10T06:53:57.304Z,97.1832
2019-05-10T06:55:00.296Z,96.8994
2019-05-10T06:56:03.389Z,96.7407
2019-05-10T06:57:11.069Z,96.8505
2019-05-10T06:58:14.370Z,97.1298
2019-05-10T06:59:19.471Z,97.2152
2019-05-10T07:00:25.374Z,97.1847
2019-05-10T07:01:28.298Z,96.5148
2019-05-10T07:02:32.483Z,96.9421
2019-05-10T07:03:36.303Z,97.0687
2019-05-10T07:04:41.069Z,96.8414
2019-05-10T07:05:44.300Z,96.4431
2019-05-10T07:06:47.284Z,96.3684
2019-05-10T07:07:50.293Z,96.8765
2019-05-10T07:08:58.086Z,97.2351
2019-05-10T07:10:12.356Z,97.0550
2019-05-10T07:11:09.383Z,96.5927
2019-05-10T07:12:15.195Z,96.3241
2019-05-10T07:13:20.305Z,96.7437
2019-05-10T07:14:25.366Z,96.6949
2019-05-10T07:15:30.307Z,97.2015
2019-05-10T07:16:33.299Z,97.2931
2019-05-10T07:17:43.655Z,97.5647
2019-05-10T07:18:45.334Z,97.3343
2019-05-10T07:19:53.876Z,97.0687
2019-05-10T07:21:00.984Z,97.3495
2019-05-10T07:22:04.342Z,96.9696
2019-05-10T07:23:07.930Z,96.3363
2019-05-10T07:24:11.310Z,96.8139
2019-05-10T07:25:14.305Z,97.0062
2019-05-10T07:26:23.504Z,97.4228
2019-05-10T07:27:25.330Z,97.6867
2019-05-10T07:28:28.320Z,97.9950
2019-05-10T07:29:41.890Z,97.7737
2019-05-10T07:30:41.400Z,97.6654
2019-05-10T07:31:45.350Z,97.9889
2019-05-10T07:32:48.329Z,97.8347
2019-05-10T07:33:51.316Z,97.2396
2019-05-10T07:34:58.942Z,96.2310
2019-05-10T07:36:02.374Z,96.9284
2019-05-10T07:37:05.295Z,96.7224
2019-05-10T07:38:08.324Z,96.1578
2019-05-10T07:39:11.300Z,96.6033
2019-05-10T07:40:14.307Z,96.8185
2019-05-10T07:41:19.738Z,97.1572
2019-05-10T07:42:25.298Z,97.2671
2019-05-10T07:43:28.993Z,97.0932
2019-05-10T07:44:32.293Z,96.9085
2019-05-10T07:45:35.326Z,97.1832
2019-05-10T07:46:39.931Z,97.2610
2019-05-10T07:47:46.345Z,97.0611
2019-05-10T07:48:53.457Z,96.2463
2019-05-10T07:49:57.328Z,96.0937
2019-05-10T07:51:00.327Z,96.2737
2019-05-10T07:52:04.455Z,96.1852
2019-05-10T07:53:08.294Z,97.0550
2019-05-10T07:54:11.349Z,97.2030
2019-05-10T07:55:18.602Z,97.2381
2019-05-10T07:56:22.353Z,97.0047
2019-05-10T07:57:27.070Z,97.1389
2019-05-10T07:58:30.304Z,97.0550
2019-05-10T07:59:49.525Z,96.4202
2019-05-10T08:00:44.503Z,95.0408
2019-05-10T08:01:49.499Z,95.1095
2019-05-10T08:03:00.796Z,94.5052
2019-05-10T08:04:00.307Z,94.4961
2019-05-10T08:05:04.921Z,94.2275
2019-05-10T08:06:11.364Z,93.6629
2019-05-10T08:07:14.313Z,93.3577
2019-05-10T08:08:19.185Z,94.1939
2019-05-10T08:09:21.283Z,93.7743
2019-05-10T08:10:24.330Z,93.7362
2019-05-10T08:11:28.549Z,93.7972
2019-05-10T08:12:35.176Z,94.5617
2019-05-10T08:13:40.328Z,95.0134
2019-05-10T08:14:44.369Z,93.8140
2019-05-10T08:15:51.348Z,93.9208
2019-05-10T08:16:58.608Z,93.4478
2019-05-10T08:18:02.361Z,93.7408
2019-05-10T08:19:05.330Z,94.1024
2019-05-10T08:20:09.043Z,92.1660
2019-05-10T08:21:23.945Z,93.0236
2019-05-10T08:22:24.340Z,92.7535
2019-05-10T08:23:28.131Z,93.0373
2019-05-10T08:24:32.729Z,93.3471
2019-05-10T08:25:44.308Z,93.5027
2019-05-10T08:26:46.323Z,93.1060
2019-05-10T08:27:55.046Z,92.5551
2019-05-10T08:28:57.298Z,93.0465
2019-05-10T08:31:08.357Z,92.9854
2019-05-10T08:32:12.738Z,93.4112
2019-05-10T08:33:16.400Z,92.1721
2019-05-10T08:34:19.360Z,92.7993
2019-05-10T08:35:22.315Z,92.3735
2019-05-10T08:36:25.318Z,92.8069
2019-05-10T08:37:35.908Z,92.1385
2019-05-10T08:38:39.568Z,92.1889
2019-05-10T08:39:49.070Z,92.2637
2019-05-10T08:40:52.934Z,91.7174
2019-05-10T08:42:04.973Z,91.6045
2019-05-10T08:43:08.440Z,92.7718
2019-05-10T08:44:19.446Z,92.1035
2019-05-10T08:45:22.680Z,92.2347
2019-05-10T08:46:34.919Z,91.2108
2019-05-10T08:47:34.291Z,91.8837
2019-05-10T08:48:38.146Z,90.7073
2019-05-10T08:49:57.081Z,91.0033
2019-05-10T08:50:57.021Z,90.8110
2019-05-10T08:52:02.470Z,90.3532
2019-05-10T08:53:11.123Z,89.5979
2019-05-10T08:54:14.303Z,90.2800
2019-05-10T08:55:17.323Z,90.1884
2019-05-10T08:56:23.458Z,90.4036
2019-05-10T08:57:27.306Z,90.7469
2019-05-10T08:58:36.759Z,90.6020
2019-05-10T08:59:38.356Z,89.5888
2019-05-10T09:00:54.169Z,90.9483
2019-05-10T09:01:50.992Z,90.0282
2019-05-10T09:03:02.332Z,90.0160
2019-05-10T09:04:06.878Z,89.5766
2019-05-10T09:05:13.301Z,89.6345
2019-05-10T09:06:17.109Z,90.0023
2019-05-10T09:07:20.333Z,90.5135
2019-05-10T09:08:27.283Z,90.1930
2019-05-10T09:09:33.778Z,89.3233
2019-05-10T09:10:39.290Z,89.9794
2019-05-10T09:11:44.379Z,90.0069
2019-05-10T09:12:54.203Z,88.7022
2019-05-10T09:13:57.814Z,87.2785
2019-05-10T09:15:08.352Z,87.0756
2019-05-10T09:16:09.305Z,86.7796
2019-05-10T09:17:14.888Z,87.7089
2019-05-10T09:18:22.740Z,86.6514
2019-05-10T09:19:36.025Z,86.8986
2019-05-10T09:20:34.290Z,86.9566
2019-05-10T09:21:40.902Z,87.6936
2019-05-10T09:22:45.297Z,87.6860
2019-05-10T09:23:52.844Z,87.1366
2019-05-10T09:24:56.315Z,87.0085
2019-05-10T09:26:03.728Z,86.6545
2019-05-10T09:27:07.283Z,87.3838
2019-05-10T09:28:14.945Z,85.5879
2019-05-10T09:29:18.305Z,86.0685
2019-05-10T09:30:22.007Z,86.3905
2019-05-10T09:31:25.834Z,87.4052
2019-05-10T09:32:30.642Z,88.0156
2019-05-10T09:33:40.992Z,88.6091
2019-05-10T09:34:44.319Z,88.5908
2019-05-10T09:35:52.315Z,88.5649
2019-05-10T09:36:55.326Z,87.6799
2019-05-10T09:37:58.718Z,87.2007
2019-05-10T09:39:03.442Z,86.4530
2019-05-10T09:40:09.992Z,86.4805
2019-05-10T09:41:14.321Z,86.6239
2019-05-10T09:42:25.692Z,86.9535
2019-05-10T09:43:25.314Z,85.9693
2019-05-10T09:44:27.422Z,86.7094
2019-05-10T09:45:32.477Z,85.5482
2019-05-10T09:46:36.335Z,84.8478
2019-05-10T09:47:39.339Z,84.4907
2019-05-10T09:48:44.640Z,84.6189
2019-05-10T09:49:54.123Z,84.3626
2019-05-10T09:51:00.199Z,83.4333
2019-05-10T09:52:12.377Z,85.1499
2019-05-10T09:53:15.299Z,84.9622
2019-05-10T09:54:23.222Z,85.5116
2019-05-10T09:55:27.958Z,85.4047
2019-05-10T09:56:33.039Z,87.0665
2019-05-10T09:57:39.317Z,88.3818
2019-05-10T09:58:42.303Z,89.2973
2019-05-10T09:59:46.998Z,90.6523
2019-05-10T10:00:50.334Z,90.1808
2019-05-10T10:01:53.330Z,90.9682
2019-05-10T10:03:00.941Z,89.4118
2019-05-10T10:04:04.306Z,90.8400
2019-05-10T10:05:07.575Z,91.1223
2019-05-10T10:06:11.249Z,90.7759
2019-05-10T10:07:14.322Z,91.5068
2019-05-10T10:08:17.659Z,91.3802
2019-05-10T10:09:24.658Z,91.8013
2019-05-10T10:10:31.957Z,91.3558
2019-05-10T10:11:35.306Z,89.5994
2019-05-10T10:12:38.316Z,89.1966
2019-05-10T10:13:44.008Z,88.2795
2019-05-10T10:14:49.308Z,88.3085
2019-05-10T10:15:52.656Z,87.2602
2019-05-10T10:17:02.143Z,85.5970
2019-05-10T10:18:04.282Z,86.9856
2019-05-10T10:19:07.336Z,87.2465
2019-05-10T10:20:10.343Z,85.5253
2019-05-10T10:21:13.450Z,86.0471
2019-05-10T10:22:21.341Z,85.4185
2019-05-10T10:23:24.803Z,86.2882
2019-05-10T10:24:31.357Z,85.2811
2019-05-10T10:25:35.088Z,87.4052
2019-05-10T10:26:42.285Z,84.5686
2019-05-10T10:27:45.322Z,86.1372
2019-05-10T10:28:49.565Z,87.2541
2019-05-10T10:29:57.358Z,86.4393
2019-05-10T10:31:05.252Z,85.5421
2019-05-10T10:32:08.355Z,85.3956
2019-05-10T10:33:16.032Z,85.8122
2019-05-10T10:34:19.315Z,85.4520
2019-05-10T10:35:26.837Z,85.1850
2019-05-10T10:36:30.262Z,85.0706
2019-05-10T10:37:33.309Z,85.3925
2019-05-10T10:38:44.755Z,84.4678
2019-05-10T10:39:44.346Z,84.7379
2019-05-10T10:40:49.348Z,84.0238
2019-05-10T10:41:52.337Z,82.8473
2019-05-10T10:42:57.683Z,82.1424
2019-05-10T10:44:01.330Z,82.4704
2019-05-10T10:45:04.292Z,83.2029
2019-05-10T10:46:11.864Z,81.5137
2019-05-10T10:47:15.304Z,81.7624
2019-05-10T10:48:18.335Z,81.4359
2019-05-10T10:49:25.499Z,81.2268
2019-05-10T10:50:29.329Z,81.1994
2019-05-10T10:51:34.460Z,80.5249
2019-05-10T10:52:38.323Z,79.4827
2019-05-10T10:53:41.330Z,79.3576
2019-05-10T10:54:44.295Z,80.9644
2019-05-10T10:55:53.974Z,80.1144
2019-05-10T10:56:59.262Z,78.9822
2019-05-10T10:58:03.309Z,79.8901
2019-05-10T10:59:07.538Z,79.3088
2019-05-10T11:00:11.309Z,79.2523
2019-05-10T11:01:21.486Z,81.0483
2019-05-10T11:02:32.385Z,79.1898
2019-05-10T11:03:30.945Z,80.3708
2019-05-10T11:04:40.638Z,79.5590
2019-05-10T11:05:43.350Z,80.0717
2019-05-10T11:06:46.341Z,79.0890
2019-05-10T11:07:51.185Z,78.7854
2019-05-10T11:08:53.330Z,78.2544
2019-05-10T11:10:13.270Z,79.7848
2019-05-10T11:11:04.366Z,80.5127
2019-05-10T11:12:07.307Z,78.1582
2019-05-10T11:13:18.080Z,78.3566
2019-05-10T11:14:20.507Z,78.6358
2019-05-10T11:15:28.181Z,78.2650
2019-05-10T11:16:32.354Z,78.8052
2019-05-10T11:17:35.315Z,78.7411
2019-05-10T11:18:38.311Z,77.9355
2019-05-10T11:19:41.821Z,77.3724
2019-05-10T11:20:49.383Z,76.3836
2019-05-10T11:21:53.334Z,74.3984
2019-05-10T11:22:56.307Z,74.6151
2019-05-10T11:23:58.339Z,73.9788
2019-05-10T11:25:09.196Z,74.9126
2019-05-10T11:26:10.838Z,76.0754
2019-05-10T11:27:17.181Z,75.8526
2019-05-10T11:28:20.689Z,76.1089
2019-05-10T11:29:27.724Z,73.4295
2019-05-10T11:30:32.515Z,75.2300
2019-05-10T11:31:36.327Z,76.1212
2019-05-10T11:32:41.591Z,77.0047
2019-05-10T11:33:47.487Z,74.9660
2019-05-10T11:34:53.297Z,74.5861
2019-05-10T11:35:57.707Z,74.0841
2019-05-10T11:37:04.287Z,73.7774
2019-05-10T11:38:12.954Z,75.9945
2019-05-10T11:39:25.750Z,74.1939
2019-05-10T11:40:29.790Z,75.1598
2019-05-10T11:41:31.593Z,74.1970
2019-05-10T11:42:37.436Z,76.4691
2019-05-10T11:43:43.328Z,78.3963
2019-05-10T11:44:50.203Z,79.3957
2019-05-10T11:45:54.302Z,78.5931
2019-05-10T11:46:57.335Z,78.8418
2019-05-10T11:48:02.156Z,76.5698
2019-05-10T11:49:05.322Z,78.1552
2019-05-10T11:50:10.475Z,76.9421
2019-05-10T11:52:22.299Z,76.3378
2019-05-10T11:53:25.317Z,77.7295
2019-05-10T11:54:28.332Z,77.1969
2019-05-10T11:55:35.229Z,77.1374
2019-05-10T11:56:41.046Z,77.3159
2019-05-10T11:57:44.555Z,76.7575
2019-05-10T11:59:03.714Z,76.9192
2019-05-10T12:00:00.295Z,76.1593
2019-05-10T12:01:14.804Z,75.8022
2019-05-10T12:02:33.735Z,75.3201
2019-05-10T12:03:23.319Z,75.7549
2019-05-10T12:04:36.376Z,76.2264
2019-05-10T12:05:35.313Z,76.4385
2019-05-10T12:06:41.235Z,75.4589
2019-05-10T12:07:46.421Z,76.0082
2019-05-10T12:08:57.053Z,74.6838
2019-05-10T12:10:08.285Z,75.1568
2019-05-10T12:12:13.335Z,71.5068
2019-05-10T12:13:23.650Z,71.1955
2019-05-10T12:14:25.343Z,71.4321
2019-05-10T12:15:31.446Z,72.2713
2019-05-10T12:16:35.346Z,73.3501
2019-05-10T12:17:46.410Z,74.7875
2019-05-10T12:19:01.233Z,73.9681
2019-05-10T12:21:09.631Z,72.0974
2019-05-10T12:22:15.976Z,69.3919
2019-05-10T12:23:29.682Z,73.1716
2019-05-10T12:24:46.216Z,71.5114
2019-05-10T12:25:51.508Z,71.4733
2019-05-10T12:26:16.032Z,71.4199
2019-05-10T12:26:17.889Z,77.2931
2019-05-10T12:26:27.366Z,71.6152
2019-05-10T12:27:52.397Z,74.0017
2019-05-10T12:29:02.183Z,72.1233
2019-05-10T12:30:04.344Z,73.6171
2019-05-10T12:31:07.522Z,73.3913
2019-05-10T12:32:15.328Z,75.5734
2019-05-10T12:33:25.130Z,74.0734
2019-05-10T12:34:26.397Z,73.6706
2019-05-10T12:35:35.739Z,72.8054
2019-05-10T12:36:37.283Z,72.4819
2019-05-10T12:37:46.280Z,72.4269
2019-05-10T12:38:48.314Z,72.1645
2019-05-10T12:39:53.142Z,72.3705
2019-05-10T12:40:56.310Z,72.1691
2019-05-10T12:41:59.316Z,73.4798
2019-05-10T12:43:02.324Z,72.7459
2019-05-10T12:44:07.440Z,72.8710
2019-05-10T12:45:10.291Z,71.4153
2019-05-10T12:46:13.304Z,71.9783
2019-05-10T12:47:16.307Z,70.7408
2019-05-10T12:48:23.214Z,72.4346
2019-05-10T12:49:26.339Z,67.5517
2019-05-10T12:50:29.320Z,67.9683
2019-05-10T12:51:31.359Z,69.3263
2019-05-10T12:52:34.382Z,68.6366
2019-05-10T12:53:44.435Z,67.5044
2019-05-10T12:54:45.341Z,67.4784
2019-05-10T12:55:48.326Z,65.1621
2019-05-10T12:56:51.332Z,67.1626
2019-05-10T12:57:54.294Z,62.4002